| time (UTC) | temp F | wind direction | speed MPH | gust MPH | rain 1hr in | rain 24hr in | rain mn in | humidity % | barometer mb |
| 20260906193036 | 80 | 73 | 6.0 | 14.0 | 0.00 | 0.26 | 0.00 | 57 | 1016.3 |
| 20260906191535 | 80 | 29 | 5.0 | 17.0 | 0.00 | 0.26 | 0.00 | 58 | 1016.2 |
| 20260906190036 | 80 | 61 | 9.0 | 15.0 | 0.00 | 0.26 | 0.00 | 58 | 1016.2 |
| 20260906184538 | 79 | 57 | 7.0 | 15.0 | 0.00 | 0.26 | 0.00 | 60 | 1016.2 |
| 20260906183040 | 80 | 30 | 5.0 | 12.0 | 0.00 | 0.26 | 0.00 | 63 | 1016.3 |
| 20260906181541 | 80 | 53 | 6.0 | 14.0 | 0.00 | 0.26 | 0.00 | 61 | 1016.5 |
| 20260906180055 | 79 | 5 | 7.0 | 13.0 | 0.00 | 0.26 | 0.00 | 60 | 1016.5 |
| 20260906174539 | 79 | 41 | 4.0 | 14.0 | 0.00 | 0.26 | 0.00 | 61 | 1016.6 |
| 20260906173038 | 79 | 32 | 5.0 | 18.0 | 0.00 | 0.26 | 0.00 | 64 | 1016.6 |
| 20260906171544 | 78 | 68 | 6.0 | 13.0 | 0.00 | 0.26 | 0.00 | 59 | 1016.8 |
| 20260906170043 | 77 | 84 | 7.0 | 14.0 | 0.00 | 0.26 | 0.00 | 64 | 1016.8 |
| 20260906164538 | 77 | 115 | 7.0 | 11.0 | 0.00 | 0.26 | 0.00 | 65 | 1016.9 |
| 20260906163038 | 76 | 13 | 8.0 | 15.0 | 0.00 | 0.26 | 0.00 | 66 | 1017.2 |
| 20260906161538 | 76 | 72 | 3.0 | 12.0 | 0.00 | 0.26 | 0.00 | 66 | 1017.3 |
| 20260906160037 | 76 | 34 | 8.0 | 14.0 | 0.00 | 0.26 | 0.00 | 64 | 1017.6 |
| 20260906154538 | 76 | 55 | 5.0 | 13.0 | 0.00 | 0.26 | 0.00 | 65 | 1017.5 |
| 20260906153041 | 75 | 71 | 3.0 | 12.0 | 0.00 | 0.26 | 0.00 | 69 | 1017.4 |
| 20260906151542 | 74 | 51 | 7.0 | 14.0 | 0.00 | 0.26 | 0.00 | 68 | 1017.3 |
| 20260906150039 | 74 | 46 | 5.0 | 13.0 | 0.00 | 0.26 | 0.00 | 71 | 1017.3 |
| 20260906144542 | 73 | 57 | 7.0 | 13.0 | 0.00 | 0.26 | 0.00 | 71 | 1017.3 |
| 20260906143048 | 72 | 74 | 5.0 | 17.0 | 0.00 | 0.26 | 0.00 | 74 | 1017.2 |
| 20260906141542 | 72 | 63 | 7.0 | 13.0 | 0.00 | 0.26 | 0.00 | 75 | 1017.0 |
| 20260906140040 | 71 | 46 | 6.0 | 12.0 | 0.00 | 0.26 | 0.00 | 78 | 1016.8 |
| 20260906134604 | 70 | 75 | 7.0 | 15.0 | 0.00 | 0.26 | 0.00 | 78 | 1016.8 |
| 20260906133056 | 69 | 61 | 6.0 | 12.0 | 0.00 | 0.26 | 0.00 | 80 | 1016.7 |
| 20260906131536 | 69 | 57 | 4.0 | 11.0 | 0.00 | 0.26 | 0.00 | 83 | 1016.7 |
| 20260906130038 | 68 | 48 | 5.0 | 12.0 | 0.00 | 0.26 | 0.00 | 83 | 1016.6 |
| 20260906124538 | 67 | 36 | 4.0 | 9.0 | 0.00 | 0.26 | 0.00 | 86 | 1016.4 |
| 20260906123037 | 67 | 39 | 5.0 | 9.0 | 0.00 | 0.26 | 0.00 | 87 | 1016.3 |
| 20260906121541 | 66 | 23 | 4.0 | 9.0 | 0.00 | 0.26 | 0.00 | 89 | 1016.2 |
| 20260906120040 | 66 | 5 | 4.0 | 10.0 | 0.00 | 0.26 | 0.00 | 89 | 1015.9 |
| 20260906114544 | 66 | 34 | 5.0 | 10.0 | 0.00 | 0.35 | 0.00 | 91 | 1015.7 |
| 20260906113037 | 66 | 27 | 5.0 | 11.0 | 0.00 | 0.35 | 0.00 | 91 | 1015.6 |
| 20260906111543 | 66 | 34 | 3.0 | 10.0 | 0.00 | 0.35 | 0.00 | 92 | 1015.5 |
| 20260906110037 | 66 | 41 | 3.0 | 8.0 | 0.00 | 0.35 | 0.00 | 92 | 1015.4 |
| 20260906104535 | 66 | 15 | 4.0 | 11.0 | 0.00 | 0.40 | 0.00 | 92 | 1015.3 |
| 20260906103038 | 66 | 38 | 6.0 | 12.0 | 0.00 | 0.40 | 0.00 | 93 | 1015.1 |
| 20260906101535 | 67 | 32 | 5.0 | 11.0 | 0.00 | 0.40 | 0.00 | 93 | 1015.0 |
| 20260906100040 | 67 | 41 | 5.0 | 11.0 | 0.00 | 0.40 | 0.00 | 93 | 1014.6 |
| 20260906094534 | 68 | 48 | 6.0 | 11.0 | 0.00 | 0.40 | 0.00 | 94 | 1014.7 |
| 20260906093038 | 68 | 34 | 5.0 | 11.0 | 0.00 | 0.40 | 0.00 | 94 | 1014.6 |
| 20260906091536 | 69 | 19 | 5.0 | 12.0 | 0.00 | 0.40 | 0.00 | 94 | 1014.4 |
| 20260906090035 | 69 | 46 | 4.0 | 9.0 | 0.00 | 0.40 | 0.00 | 94 | 1014.3 |
| 20260906084538 | 70 | 45 | 5.0 | 11.0 | 0.00 | 0.40 | 0.00 | 95 | 1014.1 |
| 20260906083038 | 70 | 42 | 6.0 | 10.0 | 0.00 | 0.40 | 0.00 | 95 | 1014.2 |
| 20260906081535 | 70 | 30 | 4.0 | 11.0 | 0.00 | 0.40 | 0.00 | 95 | 1014.1 |
| 20260906080035 | 71 | 36 | 4.0 | 8.0 | 0.00 | 0.40 | 0.00 | 95 | 1014.2 |
| 20260906074537 | 71 | 57 | 5.0 | 9.0 | 0.00 | 0.40 | 0.00 | 95 | 1014.1 |
| 20260906073038 | 71 | 29 | 3.0 | 9.0 | 0.00 | 0.40 | 0.00 | 95 | 1014.0 |
| 20260906071537 | 71 | 34 | 2.0 | 8.0 | 0.00 | 0.40 | 0.00 | 95 | 1014.2 |
| 20260906070036 | 71 | 26 | 3.0 | 6.0 | 0.00 | 0.40 | 0.00 | 95 | 1014.2 |
| 20260906064539 | 71 | 36 | 3.0 | 6.0 | 0.00 | 0.40 | 0.00 | 95 | 1014.2 |
| 20260906063036 | 71 | 30 | 2.0 | 4.0 | 0.00 | 0.40 | 0.00 | 95 | 1014.2 |
| 20260906061538 | 71 | 29 | 2.0 | 5.0 | 0.00 | 0.40 | 0.00 | 95 | 1014.2 |
| 20260906060037 | 71 | 35 | 2.0 | 5.0 | 0.00 | 0.40 | 0.00 | 95 | 1014.3 |
| 20260906054554 | 71 | 23 | 2.0 | 5.0 | 0.00 | 0.40 | 0.00 | 95 | 1014.3 |
| 20260906053037 | 71 | 18 | 2.0 | 4.0 | 0.00 | 0.40 | 0.00 | 95 | 1014.1 |
| 20260906051554 | 71 | 16 | 1.0 | 4.0 | 0.00 | 0.40 | 0.00 | 94 | 1014.2 |
| 20260906050044 | 70 | 15 | 1.0 | 3.0 | 0.00 | 0.40 | 0.00 | 94 | 1014.1 |
| 20260906044548 | 70 | 0 | 0.0 | 3.0 | 0.00 | 0.40 | 0.00 | 94 | 1014.0 |
| 20260906043035 | 70 | 15 | 0.0 | 3.0 | 0.00 | 0.40 | 0.00 | 94 | 1013.8 |
| 20260906041536 | 70 | 0 | 0.0 | 3.0 | 0.00 | 0.40 | 0.00 | 94 | 1013.6 |
| 20260906040106 | 70 | 13 | 2.0 | 8.0 | 0.00 | 0.40 | 0.00 | 94 | 1013.6 |
| 20260906034536 | 70 | 51 | 1.0 | 3.0 | 0.00 | 0.40 | 0.40 | 93 | 1013.5 |
| 20260906033051 | 70 | 51 | 1.0 | 4.0 | 0.00 | 0.40 | 0.40 | 93 | 1013.5 |
| 20260906031535 | 70 | 52 | 1.0 | 4.0 | 0.00 | 0.40 | 0.40 | 93 | 1013.5 |
| 20260906030037 | 70 | 52 | 1.0 | 4.0 | 0.00 | 0.40 | 0.40 | 93 | 1013.7 |
| 20260906024541 | 70 | 55 | 1.0 | 4.0 | 0.00 | 0.40 | 0.40 | 93 | 1013.5 |
| 20260906023037 | 70 | 207 | 0.0 | 3.0 | 0.00 | 0.40 | 0.40 | 93 | 1013.6 |
| 20260906021538 | 70 | 205 | 1.0 | 3.0 | 0.00 | 0.40 | 0.40 | 93 | 1013.6 |
| 20260906020037 | 70 | 0 | 0.0 | 1.0 | 0.00 | 0.40 | 0.40 | 93 | 1013.7 |
| 20260906014537 | 70 | 0 | 0.0 | 4.0 | 0.01 | 0.40 | 0.40 | 92 | 1013.4 |
| 20260906013036 | 70 | 47 | 0.0 | 4.0 | 0.01 | 0.40 | 0.40 | 91 | 1013.5 |
| 20260906011538 | 70 | 44 | 4.0 | 6.0 | 0.26 | 0.40 | 0.40 | 91 | 1013.4 |
| 20260906010036 | 71 | 0 | 0.0 | 2.0 | 0.26 | 0.40 | 0.40 | 88 | 1012.9 |
| 20260906004537 | 72 | 0 | 1.0 | 15.0 | 0.25 | 0.39 | 0.39 | 86 | 1013.0 |
| 20260906003037 | 72 | 76 | 17.0 | 32.0 | 0.25 | 0.39 | 0.39 | 87 | 1012.9 |
| 20260906001539 | 81 | 31 | 7.0 | 24.0 | 0.00 | 0.14 | 0.14 | 74 | 1012.8 |
| 20260906000038 | 82 | 210 | 0.0 | 1.0 | 0.00 | 0.14 | 0.14 | 81 | 1011.5 |
| 20260905234537 | 82 | 0 | 0.0 | 1.0 | 0.00 | 0.14 | 0.14 | 83 | 1012.0 |
| 20260905233035 | 84 | 0 | 0.0 | 0.0 | 0.00 | 0.14 | 0.14 | 78 | 1012.0 |
| 20260905231538 | 82 | 0 | 0.0 | 1.0 | 0.00 | 0.14 | 0.14 | 80 | 1012.2 |
| 20260905230037 | 84 | 0 | 0.0 | 1.0 | 0.00 | 0.14 | 0.14 | 78 | 1012.0 |
| 20260905224607 | 85 | 0 | 0.0 | 0.0 | 0.00 | 0.14 | 0.14 | 74 | 1012.0 |
| 20260905223044 | 87 | 0 | 0.0 | 2.0 | 0.00 | 0.14 | 0.14 | 69 | 1011.9 |
| 20260905221539 | 88 | 0 | 0.0 | 1.0 | 0.00 | 0.14 | 0.14 | 66 | 1012.1 |
| 20260905220035 | 89 | 0 | 0.0 | 2.0 | 0.00 | 0.14 | 0.14 | 65 | 1011.8 |
| 20260905214544 | 90 | 0 | 1.0 | 7.0 | 0.00 | 0.14 | 0.14 | 63 | 1011.6 |
| 20260905213035 | 89 | 0 | 0.0 | 5.0 | 0.00 | 0.14 | 0.14 | 64 | 1011.9 |
| 20260905211544 | 91 | 217 | 1.0 | 4.0 | 0.00 | 0.14 | 0.14 | 64 | 1011.9 |
| 20260905210043 | 90 | 285 | 1.0 | 4.0 | 0.00 | 0.14 | 0.14 | 64 | 1012.2 |
| 20260905204540 | 90 | 0 | 0.0 | 7.0 | 0.00 | 0.14 | 0.14 | 62 | 1012.1 |
| 20260905203038 | 90 | 305 | 0.0 | 4.0 | 0.00 | 0.14 | 0.14 | 62 | 1012.2 |
| 20260905201537 | 90 | 5 | 1.0 | 4.0 | 0.00 | 0.14 | 0.14 | 63 | 1012.5 |
| 20260905200039 | 91 | 0 | 0.0 | 8.0 | 0.00 | 0.14 | 0.14 | 61 | 1012.7 |
| 20260905194541 | 91 | 0 | 1.0 | 7.0 | 0.00 | 0.14 | 0.14 | 59 | 1013.0 |